Terminal Aerodrome Forecast
Issued by NWS

Home | Current Version | Previous Version | Text Only | Print | Product List | Glossary On
Versions: 1 2 3 4 5 6 7 8 9 10 11 12 13
327
FTUS45 KABQ 311740
TAFSAF
TAF
KSAF 311740Z 3118/0118 VRB06KT P6SM SCT060 SCT120
     FM311930 12010KT P6SM FEW070
     FM312030 14009G16KT P6SM VCTS SCT070CB BKN120
      TEMPO 3121/3124 VRB16G27KT BKN060CB BKN110
     FM010000 13014G23KT P6SM VCSH SCT070 BKN150
     FM010400 12012KT P6SM FEW070 BKN150
     FM010800 VRB06KT P6SM FEW050 SCT120=

USA.gov is the U.S. government's official web portal to all federal, state and local government web resources and services.